Time;durP1;ratioP1;P1;durP2;ratioP2;P2;SDS_P1;SDS_P2;PMS_P1;PMS_P2;Temp;Humidity;BMP_temperature;BMP_pressure;BME280_temperature;BME280_humidity;BME280_pressure;Samples;Min_cycle;Max_cycle;Signal;HPM_P1;HPM_P2
2022/08/30 00:01:03;;;;;;;2.05;1.10;;;20.80;74.70;;;21.18;71.21;101274.59;5183668;28;20046;-71
2022/08/30 00:03:42;;;;;;;3.28;1.20;;;20.70;74.90;;;21.12;71.53;101266.63;5198955;28;20054;-71
2022/08/30 00:06:18;;;;;;;3.00;1.20;;;20.60;75.20;;;21.05;71.73;101267.53;5183186;28;20074;-71
2022/08/30 00:08:50;;;;;;;2.60;1.23;;;20.60;75.50;;;20.97;71.73;101270.19;5183724;28;20034;-70
2022/08/30 00:11:27;;;;;;;2.50;1.30;;;20.50;75.60;;;20.93;71.46;101267.53;5183464;28;20046;-70
2022/08/30 00:14:00;;;;;;;2.40;1.20;;;20.50;75.60;;;20.88;71.70;101279.94;5183214;28;20049;-72
2022/08/30 00:16:32;;;;;;;2.05;1.00;;;20.40;75.70;;;20.84;72.13;101279.03;5186663;28;20046;-70
2022/08/30 00:19:05;;;;;;;2.60;1.45;;;20.30;75.90;;;20.78;72.69;101282.53;5187011;28;20042;-71
2022/08/30 00:21:39;;;;;;;2.78;1.23;;;20.30;76.50;;;20.72;73.09;101295.78;5187146;28;20578;-71
2022/08/30 00:24:11;;;;;;;3.03;1.45;;;20.20;76.90;;;20.64;73.51;101280.78;5169310;28;20046;-71
2022/08/30 00:26:43;;;;;;;2.15;1.13;;;20.20;77.30;;;20.56;74.18;101278.13;5186521;28;20046;-71
2022/08/30 00:29:17;;;;;;;2.15;1.17;;;20.10;77.90;;;20.47;74.85;101286.91;5186631;28;20438;-71
2022/08/30 00:31:49;;;;;;;2.58;1.10;;;20.00;78.40;;;20.41;75.32;101288.63;5186689;28;20049;-70
2022/08/30 00:34:21;;;;;;;2.42;1.10;;;19.90;78.90;;;20.33;75.64;101286.84;5187021;28;20050;-70
2022/08/30 00:36:54;;;;;;;1.92;1.23;;;19.90;79.40;;;20.25;76.12;101283.31;5186462;28;20049;-72
2022/08/30 00:39:26;;;;;;;2.38;1.30;;;19.80;79.90;;;20.19;77.09;101280.66;5186823;28;20141;-70
2022/08/30 00:41:59;;;;;;;1.92;1.13;;;19.80;80.70;;;20.13;77.79;101277.09;5186492;28;20041;-70
2022/08/30 00:44:33;;;;;;;4.13;1.20;;;19.70;81.50;;;20.10;78.31;101283.28;5186600;28;20502;-71
2022/08/30 00:47:05;;;;;;;2.13;1.25;;;19.60;81.90;;;20.09;78.67;101286.81;5185977;28;20050;-70
2022/08/30 00:49:42;;;;;;;1.98;1.15;;;19.60;82.50;;;20.06;78.51;101282.38;5186768;28;20061;-70
2022/08/30 00:52:15;;;;;;;1.77;1.40;;;19.60;82.60;;;20.06;78.42;101289.41;5186647;28;20054;-70
2022/08/30 00:54:49;;;;;;;2.47;1.30;;;19.60;82.70;;;20.04;78.55;101297.38;5186628;28;20052;-71
2022/08/30 00:57:21;;;;;;;3.20;1.38;;;19.60;82.80;;;20.05;78.78;101301.78;5201232;28;20053;-70
2022/08/30 00:59:56;;;;;;;1.58;1.10;;;19.60;83.20;;;20.05;78.48;101299.13;5186151;28;20064;-70
2022/08/30 01:02:32;;;;;;;1.65;1.00;;;19.60;83.20;;;20.07;78.94;101301.78;5186048;28;20049;-72
2022/08/30 01:05:09;;;;;;;2.70;1.17;;;19.60;83.60;;;20.12;79.02;101301.78;5185680;28;20042;-71
2022/08/30 01:07:42;;;;;;;3.00;1.40;;;19.60;83.80;;;20.18;78.97;101302.72;5185624;28;20049;-72
2022/08/30 01:10:18;;;;;;;1.40;1.17;;;19.70;84.00;;;20.22;78.65;101309.78;5185757;28;20509;-71
2022/08/30 01:12:51;;;;;;;2.35;1.40;;;19.70;83.80;;;20.27;78.39;101312.44;5186006;28;20502;-70
2022/08/30 01:15:25;;;;;;;1.70;1.20;;;19.80;83.80;;;20.29;77.34;101306.28;5185726;28;20144;-71
2022/08/30 01:17:58;;;;;;;3.88;1.50;;;19.80;83.10;;;20.30;76.67;101308.03;5185649;28;20057;-72
2022/08/30 01:20:39;;;;;;;2.70;1.42;;;19.80;82.50;;;20.30;76.36;101305.41;5185901;28;20045;-70
2022/08/30 01:23:17;;;;;;;1.75;1.17;;;19.80;82.30;;;20.29;77.17;101300.97;5185776;28;20046;-71
2022/08/30 01:25:54;;;;;;;2.00;1.13;;;19.80;82.60;;;20.25;77.13;101315.06;5186091;28;20401;-70
2022/08/30 01:28:27;;;;;;;3.67;1.40;;;19.80;83.00;;;20.20;77.52;101311.53;5167803;28;20495;-72
2022/08/30 01:31:00;;;;;;;1.75;1.10;;;19.70;83.20;;;20.19;77.56;101309.75;5185445;28;20073;-70
2022/08/30 01:33:32;;;;;;;2.80;1.30;;;19.70;83.40;;;20.17;77.56;101306.25;5167953;28;20104;-71
2022/08/30 01:36:09;;;;;;;2.60;1.30;;;19.70;83.50;;;20.14;77.87;101316.78;5185590;28;20042;-70
2022/08/30 01:38:47;;;;;;;2.42;1.30;;;19.70;83.80;;;20.10;78.46;101314.16;5185498;28;20050;-71
2022/08/30 01:41:24;;;;;;;2.33;1.10;;;19.60;84.20;;;20.03;78.72;101318.53;5185440;28;20544;-70
2022/08/30 01:44:00;;;;;;;2.38;1.40;;;19.60;84.50;;;19.97;79.48;101324.69;5185598;28;20566;-70
2022/08/30 01:46:36;;;;;;;2.13;1.38;;;19.50;85.10;;;19.93;79.92;101319.34;5185249;28;20046;-70
2022/08/30 01:49:13;;;;;;;3.30;1.30;;;19.50;85.60;;;19.89;80.44;101320.25;5200348;28;20049;-69
2022/08/30 01:51:45;;;;;;;2.50;1.25;;;19.40;86.20;;;19.83;81.08;101314.91;5185734;28;20052;-69
2022/08/30 01:54:19;;;;;;;2.85;1.40;;;19.40;86.80;;;19.82;81.17;101318.41;5167268;28;20050;-71
2022/08/30 01:56:51;;;;;;;2.90;1.30;;;19.40;87.10;;;19.81;81.40;101316.66;5184797;28;20050;-70
2022/08/30 01:59:24;;;;;;;1.85;1.35;;;19.30;87.30;;;19.79;81.59;101317.53;5185008;28;20034;-72
2022/08/30 02:01:56;;;;;;;2.20;1.40;;;19.30;87.70;;;19.79;81.62;101312.25;5185301;28;20042;-70
2022/08/30 02:04:29;;;;;;;2.08;1.20;;;19.30;87.80;;;19.79;81.59;101306.06;5184812;28;20474;-69
2022/08/30 02:07:02;;;;;;;2.05;1.10;;;19.30;88.00;;;19.79;81.25;101309.59;5185018;28;20042;-70
2022/08/30 02:09:36;;;;;;;2.58;1.38;;;19.30;87.70;;;19.81;80.67;101312.22;5184943;28;20092;-70
2022/08/30 02:12:09;;;;;;;2.38;1.33;;;19.30;87.50;;;19.79;81.03;101314.00;5184966;28;20053;-71
2022/08/30 02:14:42;;;;;;;2.55;1.27;;;19.30;87.80;;;19.79;81.33;101311.34;5199859;28;20050;-71
2022/08/30 02:17:18;;;;;;;2.78;1.42;;;19.30;88.10;;;19.76;81.01;101312.22;5199676;28;20046;-70
2022/08/30 02:19:50;;;;;;;2.58;1.25;;;19.30;88.00;;;19.72;80.99;101313.09;5184653;28;20096;-71
2022/08/30 02:22:23;;;;;;;3.88;1.27;;;19.30;88.10;;;19.69;81.52;101313.09;5184573;28;20045;-70
2022/08/30 02:24:56;;;;;;;2.33;1.40;;;19.20;88.50;;;19.67;81.96;101306.88;5184937;28;20130;-71
2022/08/30 02:27:29;;;;;;;4.07;1.50;;;19.20;88.80;;;19.66;82.16;101307.75;5184170;28;20041;-70
2022/08/30 02:30:01;;;;;;;3.78;1.40;;;19.20;89.20;;;19.67;82.45;101319.22;5184593;28;20042;-71
2022/08/30 02:32:33;;;;;;;1.92;1.20;;;19.20;89.60;;;19.67;82.44;101309.53;5184424;28;20148;-70
2022/08/30 02:35:07;;;;;;;3.60;1.25;;;19.20;89.70;;;19.67;81.81;101308.63;5184664;28;20042;-71
2022/08/30 02:37:43;;;;;;;2.15;1.30;;;19.20;89.30;;;19.67;81.58;101306.88;5183619;28;20038;-70
2022/08/30 02:40:17;;;;;;;2.83;1.30;;;19.20;89.30;;;19.68;81.00;101298.06;5184581;28;20038;-71
2022/08/30 02:42:50;;;;;;;2.30;1.20;;;19.30;88.90;;;19.71;80.73;101298.09;5184199;28;20050;-70
2022/08/30 02:45:25;;;;;;;1.85;1.15;;;19.20;88.60;;;19.73;80.21;101292.81;5184698;28;20038;-71
2022/08/30 02:47:58;;;;;;;2.38;1.30;;;19.30;88.40;;;19.74;80.16;101292.81;5184325;28;20061;-70
2022/08/30 02:50:31;;;;;;;3.88;1.25;;;19.30;88.40;;;19.74;80.24;101290.16;5184112;28;20113;-70
2022/08/30 02:53:03;;;;;;;2.45;1.20;;;19.30;88.40;;;19.74;80.58;101292.81;5184379;28;20048;-70
2022/08/30 02:55:37;;;;;;;3.65;1.60;;;19.30;88.70;;;19.74;80.60;101289.28;5184425;28;20402;-70
2022/08/30 02:58:10;;;;;;;2.85;1.60;;;19.30;88.60;;;19.72;80.62;101284.00;5184281;28;20124;-70
2022/08/30 03:00:43;;;;;;;3.17;1.38;;;19.30;88.80;;;19.68;81.00;101276.03;5184045;28;20037;-71
2022/08/30 03:03:16;;;;;;;2.92;1.40;;;19.30;89.00;;;19.66;80.67;101270.72;5184220;28;20133;-70
2022/08/30 03:05:48;;;;;;;2.55;1.20;;;19.20;88.80;;;19.67;80.62;101282.19;5184315;28;20057;-70
2022/08/30 03:08:21;;;;;;;3.40;1.40;;;19.20;88.80;;;19.67;80.65;101283.06;5184119;28;20054;-71
2022/08/30 03:10:56;;;;;;;2.15;1.13;;;19.20;88.90;;;19.67;80.55;101277.78;5184510;28;20274;-70
2022/08/30 03:13:28;;;;;;;2.03;1.23;;;19.20;88.90;;;19.67;80.61;101283.06;5183843;28;20046;-70
2022/08/30 03:16:01;;;;;;;2.83;1.50;;;19.20;88.90;;;19.65;80.75;101286.59;5199017;28;20073;-71
2022/08/30 03:18:34;;;;;;;3.40;1.40;;;19.20;89.10;;;19.62;81.50;101283.91;5199242;28;20045;-70
2022/08/30 03:21:11;;;;;;;2.67;1.50;;;19.20;90.10;;;19.59;81.85;101279.50;5183911;28;20125;-70
2022/08/30 03:23:45;;;;;;;2.97;1.42;;;19.20;90.30;;;19.57;82.13;101283.88;5183940;28;20406;-70
2022/08/30 03:26:18;;;;;;;1.67;1.17;;;19.10;90.10;;;19.55;82.34;101288.25;5183776;28;20447;-70
2022/08/30 03:28:52;;;;;;;2.53;1.17;;;19.10;90.20;;;19.53;82.36;101282.97;5183740;28;20044;-72
2022/08/30 03:31:28;;;;;;;2.60;1.30;;;19.10;90.20;;;19.52;82.12;101286.50;5183944;28;20494;-70
2022/08/30 03:34:00;;;;;;;2.25;1.33;;;19.10;90.20;;;19.51;82.15;101286.50;5165836;28;20054;-70
2022/08/30 03:36:33;;;;;;;2.13;1.50;;;19.10;90.30;;;19.52;82.15;101286.50;5198618;28;20510;-70
2022/08/30 03:39:06;;;;;;;2.30;1.23;;;19.10;90.30;;;19.53;82.40;101290.03;5183814;28;20525;-70
2022/08/30 03:41:39;;;;;;;1.98;1.20;;;19.10;90.40;;;19.53;82.69;101284.72;5183693;28;20042;-69
2022/08/30 03:44:12;;;;;;;2.58;1.17;;;19.10;90.50;;;19.52;82.83;101290.91;5183608;28;20053;-69
2022/08/30 03:46:44;;;;;;;2.38;1.67;;;19.10;90.50;;;19.50;83.28;101287.38;5183367;28;20505;-71
2022/08/30 03:49:17;;;;;;;2.13;1.40;;;19.10;90.80;;;19.48;83.34;101289.09;5184300;28;20042;-71
2022/08/30 03:51:49;;;;;;;4.95;1.38;;;19.10;90.80;;;19.47;83.39;101282.03;5188038;28;20068;-70
2022/08/30 03:54:21;;;;;;;2.40;1.52;;;19.00;91.10;;;19.44;83.51;101274.13;5202595;28;20053;-70
2022/08/30 03:56:55;;;;;;;2.95;1.52;;;19.00;90.90;;;19.39;84.00;101275.84;5187030;28;20554;-70
2022/08/30 03:59:27;;;;;;;2.65;1.40;;;19.00;91.10;;;19.34;84.23;101269.63;5187387;28;20038;-72
2022/08/30 04:01:59;;;;;;;2.40;1.20;;;18.90;91.20;;;19.27;84.48;101283.69;5187488;28;20528;-72
2022/08/30 04:04:31;;;;;;;2.22;1.25;;;18.80;91.40;;;19.22;84.93;101283.63;5187283;28;20073;-71
2022/08/30 04:07:04;;;;;;;2.47;1.13;;;18.80;91.60;;;19.16;85.36;101288.88;5186550;28;20502;-71
2022/08/30 04:09:36;;;;;;;2.22;1.20;;;18.70;91.80;;;19.10;85.68;101283.53;5186309;28;20061;-70
2022/08/30 04:12:10;;;;;;;2.63;1.17;;;18.70;92.00;;;19.04;86.53;101292.34;5169422;28;20050;-71
2022/08/30 04:14:42;;;;;;;2.60;1.40;;;18.60;92.20;;;19.00;87.02;101287.00;5187151;28;20046;-71
2022/08/30 04:17:14;;;;;;;3.15;1.50;;;18.60;92.50;;;18.93;87.48;101286.06;5186846;28;20041;-71
2022/08/30 04:19:49;;;;;;;2.97;1.60;;;18.50;92.70;;;18.88;87.71;101287.78;5186804;28;20460;-71
2022/08/30 04:22:22;;;;;;;3.08;1.52;;;18.50;92.90;;;18.83;88.03;101284.22;5187123;28;20418;-71
2022/08/30 04:24:57;;;;;;;2.90;1.38;;;18.40;93.00;;;18.79;88.06;101280.66;5186927;28;20038;-71
2022/08/30 04:27:31;;;;;;;2.25;1.27;;;18.40;93.20;;;18.76;88.26;101282.38;5186903;28;20072;-71
2022/08/30 04:30:04;;;;;;;2.28;1.50;;;18.40;93.30;;;18.72;88.80;101285.91;5185222;28;20054;-70
2022/08/30 04:32:39;;;;;;;3.63;1.63;;;18.30;93.60;;;18.67;88.91;101289.38;5185241;28;20053;-70
2022/08/30 04:35:13;;;;;;;3.42;1.65;;;18.30;93.70;;;18.63;88.92;101284.88;5169237;28;20510;-70
2022/08/30 04:37:45;;;;;;;2.38;1.40;;;18.20;93.70;;;18.60;89.37;101292.78;5259669;23;20491;-67
2022/08/30 04:40:19;;;;;;;1.95;1.58;;;18.30;94.00;;;18.55;89.48;101291.84;5144647;28;20487;-67
2022/08/30 04:42:53;;;;;;;2.70;1.80;;;18.20;94.10;;;18.51;89.71;101287.38;5138519;28;20455;-67
2022/08/30 04:45:25;;;;;;;2.30;1.30;;;18.10;94.20;;;18.45;90.28;101282.03;5146586;28;20130;-67
2022/08/30 04:47:58;;;;;;;2.92;1.50;;;18.10;94.50;;;18.39;90.51;101298.72;5146513;28;20047;-67
2022/08/30 04:50:30;;;;;;;4.97;1.50;;;18.00;94.60;;;18.36;90.64;101317.16;5146705;28;20050;-67
2022/08/30 04:53:02;;;;;;;3.33;1.40;;;18.00;94.80;;;18.35;90.52;101303.94;5146857;28;20057;-67
2022/08/30 04:55:34;;;;;;;2.08;1.40;;;17.90;94.80;;;18.34;90.43;101312.75;5128859;28;20051;-67
2022/08/30 04:58:08;;;;;;;3.88;1.80;;;17.90;94.80;;;18.31;90.52;101308.28;5146474;28;20174;-67
2022/08/30 05:00:43;;;;;;;3.13;1.42;;;17.90;95.00;;;18.32;90.56;101314.47;5146856;28;20042;-68
2022/08/30 05:03:16;;;;;;;3.47;1.70;;;17.90;95.00;;;18.31;90.45;101312.69;5147458;28;20054;-67
2022/08/30 05:05:49;;;;;;;1.70;1.35;;;17.90;95.00;;;18.29;90.54;101323.25;5147191;28;20499;-67
2022/08/30 05:08:23;;;;;;;2.30;1.50;;;17.90;95.10;;;18.28;90.84;101324.13;5130150;28;20064;-67
2022/08/30 05:10:55;;;;;;;2.92;1.98;;;17.90;95.20;;;18.25;91.28;101320.53;5147603;28;20129;-68
2022/08/30 05:13:28;;;;;;;3.10;1.90;;;17.90;95.40;;;18.24;91.75;101324.03;5147648;28;20046;-67
2022/08/30 05:16:01;;;;;;;2.92;1.45;;;17.80;95.60;;;18.22;92.33;101317.88;5146225;28;20125;-68
2022/08/30 05:18:34;;;;;;;3.33;1.60;;;17.80;95.80;;;18.24;92.89;101324.03;5146268;28;20078;-67
2022/08/30 05:21:09;;;;;;;2.47;1.67;;;17.90;96.10;;;18.30;93.15;101313.56;5146330;28;20123;-66
2022/08/30 05:23:43;;;;;;;4.03;2.00;;;17.90;96.30;;;18.39;92.61;101313.69;5146346;28;20410;-68
2022/08/30 05:26:19;;;;;;;3.80;2.05;;;18.00;96.30;;;18.45;92.19;101313.72;5145976;28;20051;-68
2022/08/30 05:28:52;;;;;;;3.28;1.70;;;18.00;96.10;;;18.50;91.69;101317.31;5146045;28;20042;-67
2022/08/30 05:31:28;;;;;;;2.95;1.73;;;18.10;96.00;;;18.56;91.29;101319.13;5146211;28;20053;-67
2022/08/30 05:34:00;;;;;;;4.95;1.98;;;18.20;95.90;;;18.61;91.50;101323.59;5146026;28;20164;-66
2022/08/30 05:36:36;;;;;;;3.17;1.70;;;18.20;95.90;;;18.65;91.50;101324.53;5145598;28;20043;-67
2022/08/30 05:39:10;;;;;;;4.05;1.80;;;18.30;95.90;;;18.67;91.33;101326.31;5145881;28;20051;-66
2022/08/30 05:41:42;;;;;;;;;;;18.30;95.80;;;18.69;91.45;101324.56;5146652;28;20133;-67
2022/08/30 05:44:15;;;;;;;2.83;1.70;;;18.30;95.90;;;18.72;91.64;101321.09;5145719;28;19930;-66
2022/08/30 05:46:48;;;;;;;2.78;1.73;;;18.40;96.00;;;18.76;91.43;101335.22;5145499;28;20385;-66
2022/08/30 05:49:20;;;;;;;3.28;1.50;;;18.30;95.90;;;18.76;90.93;101336.09;5145518;28;20050;-66
2022/08/30 05:51:52;;;;;;;2.75;1.70;;;18.40;95.80;;;18.79;91.00;101343.19;5145442;28;20038;-67
2022/08/30 05:54:24;;;;;;;4.97;2.05;;;18.40;95.80;;;18.82;90.66;101341.44;5160540;28;20401;-67
2022/08/30 05:56:56;;;;;;;3.20;1.63;;;18.40;95.70;;;18.85;89.84;101340.59;5145272;28;20047;-66
2022/08/30 05:59:30;;;;;;;3.03;1.60;;;18.40;95.40;;;18.88;89.78;101337.97;5145561;28;20051;-67
2022/08/30 06:02:02;;;;;;;1.30;1.15;;;18.50;95.40;;;19.14;95.36;101332.91;5144877;28;20045;-64
2022/08/30 06:04:35;;;;;;;3.08;1.40;;;18.70;97.50;;;19.59;92.66;101326.22;5144850;28;20059;-56
2022/08/30 06:07:07;;;;;;;2.70;1.25;;;19.20;96.70;;;19.98;89.73;101336.16;5144280;28;20046;-56
2022/08/30 06:09:39;;;;;;;3.50;1.60;;;19.70;95.10;;;20.35;86.75;101337.19;5144458;28;20050;-62
2022/08/30 06:12:11;;;;;;;5.63;1.60;;;20.00;93.80;;;20.67;84.56;101339.97;5143809;28;20086;-59
2022/08/30 06:14:45;;;;;;;6.35;1.83;;;20.30;93.00;;;20.96;83.30;101331.16;5144393;28;20042;-59
2022/08/30 06:17:17;;;;;;;6.65;2.10;;;20.60;92.50;;;21.25;81.87;101329.38;5144117;28;20135;-60
2022/08/30 06:19:49;;;;;;;3.72;1.90;;;20.80;92.00;;;21.51;80.27;101321.41;5144424;28;20508;-59
2022/08/30 06:22:21;;;;;;;6.65;2.42;;;21.00;91.40;;;21.65;79.24;101324.06;5144295;28;20048;-58
2022/08/30 06:24:53;;;;;;;7.53;2.50;;;21.20;90.80;;;21.67;78.43;101330.25;5144414;28;20077;-59
2022/08/30 06:27:25;;;;;;;6.00;2.30;;;21.30;90.30;;;21.69;78.10;101331.09;5143942;28;20082;-58
2022/08/30 06:29:59;;;;;;;6.68;2.45;;;21.30;90.30;;;21.71;77.98;101328.44;5144467;28;20142;-58
2022/08/30 06:32:31;;;;;;;5.55;2.13;;;21.30;89.70;;;21.76;78.23;101332.84;5144141;28;20049;-58
2022/08/30 06:35:04;;;;;;;4.68;2.28;;;21.40;89.90;;;21.93;78.27;101330.16;5144212;28;20047;-58
2022/08/30 06:37:37;;;;;;;5.00;2.40;;;21.50;90.00;;;22.19;77.79;101332.75;5143886;28;20062;-59
2022/08/30 06:40:12;;;;;;;8.27;2.58;;;21.70;89.90;;;22.52;76.05;101326.38;5144202;28;20051;-58
2022/08/30 06:42:44;;;;;;;5.40;2.30;;;21.90;88.80;;;22.83;74.14;101326.19;5143783;28;20045;-59
2022/08/30 06:45:19;;;;;;;5.47;2.08;;;22.10;87.20;;;23.17;72.41;101327.72;5143860;28;20072;-58
2022/08/30 06:47:51;;;;;;;4.13;1.95;;;22.40;85.60;;;23.44;71.12;101323.91;5143666;28;20043;-58
2022/08/30 06:50:24;;;;;;;4.65;2.10;;;22.70;84.20;;;23.66;70.26;101331.69;5143751;28;20133;-57
2022/08/30 06:53:03;;;;;;;5.47;1.83;;;22.80;82.90;;;23.71;69.94;101335.19;5143847;28;20054;-58
2022/08/30 06:55:36;;;;;;;4.85;2.00;;;23.00;82.40;;;23.70;70.19;101328.09;5143925;28;20050;-58
2022/08/30 06:58:08;;;;;;;4.65;1.75;;;23.00;81.90;;;23.59;70.83;101324.63;5143614;28;20047;-59
2022/08/30 07:00:41;;;;;;;3.83;2.00;;;22.90;82.30;;;23.41;71.24;101329.28;5143437;28;20050;-58
2022/08/30 07:03:13;;;;;;;3.78;1.83;;;22.80;82.40;;;23.19;71.67;101341.88;5143469;28;20137;-60
2022/08/30 07:05:48;;;;;;;2.83;1.50;;;22.60;82.30;;;23.02;72.34;101339.38;5143585;28;20047;-59
2022/08/30 07:08:21;;;;;;;3.70;2.22;;;22.50;82.80;;;22.90;72.63;101344.78;5143613;28;20162;-58
2022/08/30 07:10:54;;;;;;;3.45;1.83;;;22.40;83.10;;;22.75;72.89;101340.38;5143555;28;20047;-58
2022/08/30 07:13:27;;;;;;;3.80;1.90;;;22.20;83.30;;;22.78;73.36;101344.81;5143482;28;20070;-57
2022/08/30 07:16:00;;;;;;;3.20;1.60;;;22.20;83.80;;;23.03;73.37;101337.59;5143255;28;20147;-57
2022/08/30 07:18:53;;;;;;;4.50;2.30;;;22.30;84.20;;;23.42;72.24;101344.34;5143571;28;20407;-59
2022/08/30 07:21:30;;;;;;;5.13;2.05;;;22.60;83.70;;;23.96;71.26;101352.66;5143450;28;20046;-58
2022/08/30 07:24:03;;;;;;;4.55;2.10;;;23.00;83.00;;;24.37;69.74;101353.94;5145149;28;20042;-59
2022/08/30 07:26:39;;;;;;;5.50;1.85;;;23.40;81.90;;;24.67;67.54;101354.44;5147225;28;20038;-60
2022/08/30 07:29:11;;;;;;;3.67;1.75;;;23.70;79.70;;;24.68;67.33;101356.19;5147499;28;20094;-58
2022/08/30 07:31:45;;;;;;;5.28;1.90;;;23.80;78.60;;;24.57;67.06;101359.88;5147523;28;20043;-58
2022/08/30 07:34:18;;;;;;;3.70;1.90;;;23.80;78.00;;;24.46;67.66;101369.84;5147415;28;20117;-60
2022/08/30 07:36:50;;;;;;;2.75;1.60;;;23.70;78.00;;;24.35;68.09;101361.09;5147127;28;20058;-57
2022/08/30 07:39:22;;;;;;;4.55;1.63;;;23.60;78.40;;;24.31;68.19;101354.88;5147443;28;20523;-60
2022/08/30 07:41:54;;;;;;;3.65;1.73;;;23.60;78.60;;;24.31;68.27;101359.31;5147237;28;20049;-57
2022/08/30 07:44:26;;;;;;;2.40;1.40;;;23.60;79.20;;;24.22;68.54;101364.78;5147293;28;20078;-58
2022/08/30 07:46:59;;;;;;;3.35;1.60;;;23.50;78.40;;;24.09;68.58;101362.25;5146970;28;20038;-57
2022/08/30 07:49:31;;;;;;;3.75;1.70;;;23.40;78.50;;;24.00;69.35;101358.84;5147300;28;20042;-58
2022/08/30 07:52:05;;;;;;;4.65;1.50;;;23.30;78.90;;;23.90;70.14;101360.72;5147111;28;20071;-58
2022/08/30 07:54:37;;;;;;;2.85;1.50;;;23.30;79.60;;;23.82;70.46;101357.25;5146805;28;20500;-58
2022/08/30 07:57:09;;;;;;;2.00;1.30;;;23.20;79.70;;;23.84;71.02;101358.13;5146679;28;20049;-58
2022/08/30 07:59:41;;;;;;;2.60;1.65;;;23.20;80.30;;;23.87;70.83;101357.22;5147103;28;20053;-57
2022/08/30 08:02:14;;;;;;;2.97;1.70;;;23.10;80.30;;;23.89;71.42;101360.75;5146860;28;20500;-58
2022/08/30 08:04:47;;;;;;;3.58;1.75;;;23.10;80.70;;;24.22;71.22;101360.34;5129343;28;20440;-60
2022/08/30 08:07:19;;;;;;;2.97;1.73;;;23.30;80.90;;;24.78;70.34;101360.50;5146569;28;20057;-57
2022/08/30 08:09:51;;;;;;;3.42;2.15;;;23.70;80.70;;;25.37;68.22;101356.91;5146796;28;20459;-57
2022/08/30 08:12:23;;;;;;;4.35;1.88;;;24.10;79.60;;;25.92;66.64;101363.91;5146687;28;20042;-58
2022/08/30 08:14:56;;;;;;;3.28;1.65;;;24.60;78.30;;;26.44;65.20;101359.31;5146979;28;20051;-58
2022/08/30 08:17:29;;;;;;;3.47;1.60;;;24.90;76.90;;;26.95;63.31;101351.88;5146266;28;20051;-58
2022/08/30 08:20:02;;;;;;;3.80;1.73;;;25.30;75.40;;;27.46;62.22;101359.53;5146509;28;20046;-58
2022/08/30 08:22:34;;;;;;;8.38;2.03;;;25.70;74.20;;;27.95;61.15;101362.69;5146782;28;20038;-56
2022/08/30 08:25:07;;;;;;;5.60;1.83;;;26.10;73.30;;;28.52;59.36;101356.59;5146564;28;20053;-56
2022/08/30 08:27:39;;;;;;;2.40;1.23;;;26.40;72.00;;;29.26;58.51;101358.66;5146123;28;20046;-57
2022/08/30 08:30:12;;;;;;;4.60;1.88;;;26.90;71.20;;;30.22;56.28;101354.38;5146199;28;20043;-58
2022/08/30 08:32:46;;;;;;;3.88;1.75;;;27.50;69.70;;;31.04;54.15;101364.56;5146286;28;20051;-58
2022/08/30 08:35:19;;;;;;;4.13;1.90;;;28.00;67.40;;;31.59;52.68;101361.38;5145732;28;20074;-57
2022/08/30 08:37:52;;;;;;;2.85;1.50;;;28.50;65.70;;;32.11;51.66;101362.63;5145938;28;20046;-58
2022/08/30 08:40:24;;;;;;;2.40;1.45;;;29.00;64.60;;;32.64;50.07;101356.53;5146056;28;20046;-57
2022/08/30 08:43:03;;;;;;;6.03;1.83;;;29.50;62.10;;;32.78;49.62;101360.38;5146073;28;20484;-57
2022/08/30 08:45:46;;;;;;;2.30;1.55;;;29.90;60.90;;;33.08;49.45;101358.91;5146148;28;20047;-57
2022/08/30 08:48:30;;;;;;;3.05;1.90;;;30.20;60.40;;;33.31;48.71;101359.56;5145882;28;20515;-57
2022/08/30 08:54:00;;;;;;;3.35;1.58;;;30.70;57.80;;;33.21;48.46;101349.22;5145919;28;20050;-58
2022/08/30 08:56:33;;;;;;;2.95;1.50;;;30.70;58.10;;;32.52;48.12;101349.03;5145541;28;20046;-56
2022/08/30 08:59:08;;;;;;;3.08;1.45;;;30.40;57.30;;;31.85;49.26;101353.03;5145748;28;20110;-57
2022/08/30 09:01:41;;;;;;;3.72;1.33;;;29.90;57.60;;;32.03;49.26;101356.72;5145518;28;20043;-56
2022/08/30 09:04:19;;;;;;;4.25;1.77;;;29.90;58.10;;;32.25;47.64;101348.50;5145929;28;20043;-57
2022/08/30 09:06:57;;;;;;;2.78;1.25;;;30.00;56.60;;;31.72;48.69;101345.53;5145483;28;20054;-57
2022/08/30 09:09:34;;;;;;;3.13;1.70;;;29.80;56.80;;;31.27;49.31;101346.59;5145704;28;20492;-57
2022/08/30 09:12:09;;;;;;;2.80;1.70;;;29.50;57.20;;;30.86;50.11;101341.09;5145665;28;20130;-56
2022/08/30 09:14:45;;;;;;;4.53;1.65;;;29.30;57.60;;;30.62;50.42;101340.25;5145887;28;20125;-57
2022/08/30 09:17:20;;;;;;;3.00;1.45;;;29.10;58.10;;;30.72;50.89;101335.41;5145419;28;20049;-60
2022/08/30 09:20:01;;;;;;;4.25;1.55;;;29.10;58.40;;;30.85;50.51;101344.75;5145479;28;20043;-61
2022/08/30 09:22:37;;;;;;;4.78;1.60;;;29.40;58.10;;;30.81;50.91;101332.34;5145524;28;20105;-57
2022/08/30 09:25:21;;;;;;;2.53;1.60;;;29.40;57.90;;;30.84;51.43;101334.88;5145629;28;20500;-57
2022/08/30 09:28:09;;;;;;;2.33;1.40;;;29.50;58.90;;;30.86;51.25;101338.41;5145202;28;20101;-57
2022/08/30 09:31:04;;;;;;;3.15;1.52;;;29.60;57.90;;;30.96;51.08;101328.13;5145198;28;20066;-58
2022/08/30 09:33:36;;;;;;;3.88;1.33;;;29.70;57.60;;;31.04;50.68;101316.13;5145272;28;20408;-58
2022/08/30 09:36:27;;;;;;;3.22;1.50;;;29.80;57.40;;;30.94;50.34;101317.44;5145012;28;20051;-56
2022/08/30 09:39:03;;;;;;;3.22;1.48;;;29.80;57.10;;;30.61;51.10;101316.09;5144718;28;20074;-57
2022/08/30 09:41:41;;;;;;;3.40;1.50;;;29.50;57.20;;;30.20;51.76;101315.94;5145011;28;20054;-60
2022/08/30 09:44:17;;;;;;;3.88;1.52;;;29.20;57.50;;;30.07;52.00;101320.00;5145097;28;20132;-57
2022/08/30 09:46:53;;;;;;;3.33;1.60;;;29.00;58.00;;;30.15;51.68;101317.91;5143905;28;20049;-57
2022/08/30 09:49:36;;;;;;;3.25;1.58;;;29.00;58.00;;;30.25;50.94;101311.22;5144760;28;20401;-56
2022/08/30 09:52:19;;;;;;;2.97;1.33;;;29.10;57.30;;;30.38;50.50;101312.50;5144914;28;20070;-56
2022/08/30 09:55:21;;;;;;;2.63;1.40;;;29.20;57.10;;;30.47;50.41;101304.06;5144909;28;20039;-58
2022/08/30 09:58:03;;;;;;;3.35;1.23;;;29.30;56.70;;;30.49;50.11;101301.31;5144372;28;20523;-57
2022/08/30 10:00:41;;;;;;;2.38;1.50;;;29.30;56.40;;;30.25;49.94;101297.78;5145008;28;20057;-60
2022/08/30 10:03:25;;;;;;;2.60;1.58;;;29.20;56.10;;;30.03;49.19;101296.84;5144586;28;20049;-58
2022/08/30 10:06:07;;;;;;;3.38;1.38;;;29.00;55.70;;;29.92;50.29;101295.41;5144232;28;20064;-60
2022/08/30 10:08:54;;;;;;;2.65;1.55;;;28.90;56.30;;;29.99;50.46;101288.91;5144534;28;20479;-58
2022/08/30 10:11:35;;;;;;;2.60;1.40;;;28.90;56.90;;;30.23;49.79;101294.28;5144444;28;20169;-57
2022/08/30 10:14:48;;;;;;;3.85;1.60;;;29.00;56.30;;;30.63;49.18;101285.50;5144484;28;20057;-57
2022/08/30 10:17:37;;;;;;;2.70;1.60;;;29.30;55.70;;;31.06;49.25;101287.31;5144400;28;20050;-58
2022/08/30 10:20:24;;;;;;;2.75;1.38;;;29.60;56.10;;;31.28;46.67;101278.31;5144411;28;20051;-57
2022/08/30 10:23:05;;;;;;;3.67;1.60;;;29.90;54.00;;;31.32;46.09;101277.25;5144245;28;20046;-58
2022/08/30 10:25:44;;;;;;;3.22;1.70;;;30.00;52.90;;;31.05;45.93;101285.56;5144104;28;20053;-57
2022/08/30 10:28:22;;;;;;;2.20;1.45;;;29.90;52.70;;;30.70;46.21;101283.47;5144112;28;20125;-58
2022/08/30 10:31:01;;;;;;;3.58;1.77;;;29.70;52.90;;;30.41;46.39;101279.25;5143783;28;20053;-58
2022/08/30 10:33:38;;;;;;;2.38;1.65;;;29.40;53.00;;;30.13;46.75;101283.03;5144169;28;20444;-57
2022/08/30 10:36:13;;;;;;;2.05;1.30;;;29.20;53.20;;;29.95;48.26;101276.50;5143537;28;20443;-57
2022/08/30 10:38:51;;;;;;;3.05;1.30;;;29.00;54.10;;;29.86;48.09;101279.53;5144006;28;20057;-58
2022/08/30 10:41:33;;;;;;;2.97;1.60;;;28.90;54.20;;;29.74;48.15;101274.66;5143928;28;20123;-58
2022/08/30 10:44:13;;;;;;;1.50;1.20;;;28.80;54.10;;;29.64;48.30;101278.59;5143936;28;20061;-56
2022/08/30 10:47:01;;;;;;;2.22;1.27;;;28.70;54.40;;;29.64;48.40;101278.59;5144127;28;20057;-59